sensor_id;sensor_type;location;lat;lon;timestamp;P1;durP1;ratioP1;P2;durP2;ratioP2
51943;SDS011;37969;53.132;6.370;2022-12-18T00:01:20;173.43;;;54.05;;
51943;SDS011;37969;53.132;6.370;2022-12-18T00:03:47;161.82;;;53.13;;
51943;SDS011;37969;53.132;6.370;2022-12-18T00:06:13;160.43;;;52.75;;
51943;SDS011;37969;53.132;6.370;2022-12-18T00:08:40;161.80;;;52.53;;
51943;SDS011;37969;53.132;6.370;2022-12-18T00:11:07;158.63;;;50.78;;
51943;SDS011;37969;53.132;6.370;2022-12-18T00:13:33;173.40;;;51.20;;
51943;SDS011;37969;53.132;6.370;2022-12-18T00:16:02;167.88;;;53.22;;
51943;SDS011;37969;53.132;6.370;2022-12-18T00:18:28;179.68;;;54.47;;
51943;SDS011;37969;53.132;6.370;2022-12-18T00:20:57;175.82;;;53.45;;
51943;SDS011;37969;53.132;6.370;2022-12-18T00:23:24;155.77;;;50.40;;
51943;SDS011;37969;53.132;6.370;2022-12-18T00:25:50;171.77;;;50.97;;
51943;SDS011;37969;53.132;6.370;2022-12-18T00:28:16;168.10;;;53.63;;
51943;SDS011;37969;53.132;6.370;2022-12-18T00:30:42;177.45;;;51.83;;
51943;SDS011;37969;53.132;6.370;2022-12-18T00:33:08;174.63;;;54.15;;
51943;SDS011;37969;53.132;6.370;2022-12-18T00:35:34;150.68;;;48.85;;
51943;SDS011;37969;53.132;6.370;2022-12-18T00:38:00;147.88;;;49.63;;
51943;SDS011;37969;53.132;6.370;2022-12-18T00:40:26;153.05;;;49.08;;
51943;SDS011;37969;53.132;6.370;2022-12-18T00:42:53;158.10;;;51.13;;
51943;SDS011;37969;53.132;6.370;2022-12-18T00:45:25;150.48;;;47.13;;
51943;SDS011;37969;53.132;6.370;2022-12-18T00:47:52;145.10;;;48.20;;
51943;SDS011;37969;53.132;6.370;2022-12-18T00:50:18;158.25;;;49.45;;
51943;SDS011;37969;53.132;6.370;2022-12-18T00:52:44;160.27;;;49.90;;
51943;SDS011;37969;53.132;6.370;2022-12-18T00:55:11;174.10;;;53.08;;
51943;SDS011;37969;53.132;6.370;2022-12-18T00:57:37;166.20;;;51.05;;
51943;SDS011;37969;53.132;6.370;2022-12-18T01:00:04;155.18;;;50.17;;
51943;SDS011;37969;53.132;6.370;2022-12-18T01:02:31;179.10;;;53.17;;
51943;SDS011;37969;53.132;6.370;2022-12-18T01:04:57;176.05;;;50.95;;
51943;SDS011;37969;53.132;6.370;2022-12-18T01:07:23;151.15;;;47.13;;
51943;SDS011;37969;53.132;6.370;2022-12-18T01:09:49;163.10;;;49.67;;
51943;SDS011;37969;53.132;6.370;2022-12-18T01:12:15;161.27;;;49.47;;
51943;SDS011;37969;53.132;6.370;2022-12-18T01:14:41;184.50;;;53.90;;
51943;SDS011;37969;53.132;6.370;2022-12-18T01:17:08;168.95;;;51.80;;
51943;SDS011;37969;53.132;6.370;2022-12-18T01:19:34;162.75;;;48.80;;
51943;SDS011;37969;53.132;6.370;2022-12-18T01:22:00;155.18;;;47.70;;
51943;SDS011;37969;53.132;6.370;2022-12-18T01:24:26;167.32;;;47.00;;
51943;SDS011;37969;53.132;6.370;2022-12-18T01:26:52;153.60;;;48.40;;
51943;SDS011;37969;53.132;6.370;2022-12-18T01:29:19;153.90;;;45.88;;
51943;SDS011;37969;53.132;6.370;2022-12-18T01:31:45;143.05;;;45.72;;
51943;SDS011;37969;53.132;6.370;2022-12-18T01:34:11;152.55;;;47.35;;
51943;SDS011;37969;53.132;6.370;2022-12-18T01:36:37;145.15;;;45.88;;
51943;SDS011;37969;53.132;6.370;2022-12-18T01:39:06;150.57;;;47.38;;
51943;SDS011;37969;53.132;6.370;2022-12-18T01:41:33;141.07;;;45.35;;
51943;SDS011;37969;53.132;6.370;2022-12-18T01:47:03;140.73;;;45.63;;
51943;SDS011;37969;53.132;6.370;2022-12-18T01:49:29;144.82;;;46.28;;
51943;SDS011;37969;53.132;6.370;2022-12-18T01:51:55;152.50;;;47.25;;
51943;SDS011;37969;53.132;6.370;2022-12-18T01:54:21;142.32;;;46.45;;
51943;SDS011;37969;53.132;6.370;2022-12-18T01:56:47;166.20;;;48.20;;
51943;SDS011;37969;53.132;6.370;2022-12-18T01:59:13;150.00;;;44.85;;
51943;SDS011;37969;53.132;6.370;2022-12-18T02:01:40;155.38;;;46.15;;
51943;SDS011;37969;53.132;6.370;2022-12-18T02:04:18;149.75;;;48.35;;
51943;SDS011;37969;53.132;6.370;2022-12-18T02:06:44;151.20;;;45.92;;
51943;SDS011;37969;53.132;6.370;2022-12-18T02:09:13;139.85;;;45.45;;
51943;SDS011;37969;53.132;6.370;2022-12-18T02:19:15;160.63;;;48.50;;
51943;SDS011;37969;53.132;6.370;2022-12-18T02:21:48;150.98;;;48.17;;
51943;SDS011;37969;53.132;6.370;2022-12-18T02:24:26;153.60;;;47.83;;
51943;SDS011;37969;53.132;6.370;2022-12-18T02:26:56;176.13;;;49.63;;
51943;SDS011;37969;53.132;6.370;2022-12-18T02:29:24;157.77;;;49.53;;
51943;SDS011;37969;53.132;6.370;2022-12-18T02:31:54;164.90;;;46.38;;
51943;SDS011;37969;53.132;6.370;2022-12-18T02:34:37;165.82;;;47.58;;
51943;SDS011;37969;53.132;6.370;2022-12-18T02:37:04;155.25;;;46.97;;
51943;SDS011;37969;53.132;6.370;2022-12-18T02:39:32;156.73;;;46.65;;
51943;SDS011;37969;53.132;6.370;2022-12-18T02:41:58;168.90;;;48.08;;
51943;SDS011;37969;53.132;6.370;2022-12-18T02:44:27;161.45;;;47.67;;
51943;SDS011;37969;53.132;6.370;2022-12-18T02:46:53;170.57;;;48.90;;
51943;SDS011;37969;53.132;6.370;2022-12-18T02:49:30;171.63;;;49.15;;
51943;SDS011;37969;53.132;6.370;2022-12-18T02:52:02;162.93;;;45.30;;
51943;SDS011;37969;53.132;6.370;2022-12-18T02:54:33;166.80;;;49.63;;
51943;SDS011;37969;53.132;6.370;2022-12-18T02:57:05;167.95;;;50.17;;
51943;SDS011;37969;53.132;6.370;2022-12-18T02:59:38;154.10;;;49.83;;
51943;SDS011;37969;53.132;6.370;2022-12-18T03:02:10;164.00;;;50.40;;
51943;SDS011;37969;53.132;6.370;2022-12-18T03:04:43;168.00;;;50.78;;
51943;SDS011;37969;53.132;6.370;2022-12-18T03:07:11;188.32;;;53.50;;
51943;SDS011;37969;53.132;6.370;2022-12-18T03:09:42;175.40;;;51.90;;
51943;SDS011;37969;53.132;6.370;2022-12-18T03:12:20;173.90;;;52.08;;
51943;SDS011;37969;53.132;6.370;2022-12-18T03:14:48;149.63;;;50.15;;
51943;SDS011;37969;53.132;6.370;2022-12-18T03:17:16;164.95;;;49.63;;
51943;SDS011;37969;53.132;6.370;2022-12-18T03:19:44;157.88;;;52.97;;
51943;SDS011;37969;53.132;6.370;2022-12-18T03:22:12;159.25;;;50.88;;
51943;SDS011;37969;53.132;6.370;2022-12-18T03:24:39;147.40;;;49.55;;
51943;SDS011;37969;53.132;6.370;2022-12-18T03:27:10;145.90;;;48.85;;
51943;SDS011;37969;53.132;6.370;2022-12-18T03:29:38;145.93;;;47.65;;
51943;SDS011;37969;53.132;6.370;2022-12-18T03:32:08;153.88;;;50.40;;
51943;SDS011;37969;53.132;6.370;2022-12-18T03:37:02;135.10;;;46.22;;
51943;SDS011;37969;53.132;6.370;2022-12-18T03:39:28;143.02;;;47.90;;
51943;SDS011;37969;53.132;6.370;2022-12-18T03:41:57;132.82;;;45.15;;
51943;SDS011;37969;53.132;6.370;2022-12-18T03:44:27;144.38;;;47.53;;
51943;SDS011;37969;53.132;6.370;2022-12-18T03:49:25;133.70;;;45.03;;
51943;SDS011;37969;53.132;6.370;2022-12-18T03:51:57;128.50;;;46.03;;
51943;SDS011;37969;53.132;6.370;2022-12-18T03:54:25;125.07;;;44.63;;
51943;SDS011;37969;53.132;6.370;2022-12-18T03:56:57;127.18;;;45.15;;
51943;SDS011;37969;53.132;6.370;2022-12-18T03:59:24;125.43;;;43.30;;
51943;SDS011;37969;53.132;6.370;2022-12-18T04:01:50;122.55;;;45.17;;
51943;SDS011;37969;53.132;6.370;2022-12-18T04:04:18;120.07;;;41.35;;
51943;SDS011;37969;53.132;6.370;2022-12-18T04:06:45;118.65;;;43.40;;
51943;SDS011;37969;53.132;6.370;2022-12-18T04:09:12;128.05;;;42.17;;
51943;SDS011;37969;53.132;6.370;2022-12-18T04:11:39;118.47;;;42.47;;
51943;SDS011;37969;53.132;6.370;2022-12-18T04:14:06;116.28;;;42.83;;
51943;SDS011;37969;53.132;6.370;2022-12-18T04:16:32;107.38;;;41.95;;
51943;SDS011;37969;53.132;6.370;2022-12-18T04:18:58;107.20;;;38.55;;
51943;SDS011;37969;53.132;6.370;2022-12-18T04:21:24;111.57;;;40.65;;
51943;SDS011;37969;53.132;6.370;2022-12-18T04:23:50;99.07;;;36.42;;
51943;SDS011;37969;53.132;6.370;2022-12-18T04:26:16;111.75;;;40.08;;
51943;SDS011;37969;53.132;6.370;2022-12-18T04:28:43;109.43;;;40.67;;
51943;SDS011;37969;53.132;6.370;2022-12-18T04:31:09;103.43;;;39.25;;
51943;SDS011;37969;53.132;6.370;2022-12-18T04:33:35;100.78;;;38.75;;
51943;SDS011;37969;53.132;6.370;2022-12-18T04:36:01;105.10;;;39.38;;
51943;SDS011;37969;53.132;6.370;2022-12-18T04:38:27;104.28;;;38.10;;
51943;SDS011;37969;53.132;6.370;2022-12-18T04:40:53;110.18;;;39.33;;
51943;SDS011;37969;53.132;6.370;2022-12-18T04:43:20;106.55;;;39.30;;
51943;SDS011;37969;53.132;6.370;2022-12-18T04:45:46;101.05;;;38.25;;
51943;SDS011;37969;53.132;6.370;2022-12-18T04:48:12;105.97;;;38.08;;
51943;SDS011;37969;53.132;6.370;2022-12-18T04:50:38;104.43;;;38.92;;
51943;SDS011;37969;53.132;6.370;2022-12-18T04:53:04;102.72;;;37.78;;
51943;SDS011;37969;53.132;6.370;2022-12-18T04:55:30;98.53;;;37.42;;
51943;SDS011;37969;53.132;6.370;2022-12-18T04:57:56;113.38;;;40.00;;
51943;SDS011;37969;53.132;6.370;2022-12-18T05:00:23;105.10;;;36.92;;
51943;SDS011;37969;53.132;6.370;2022-12-18T05:02:49;107.50;;;38.80;;
51943;SDS011;37969;53.132;6.370;2022-12-18T05:05:15;101.68;;;37.35;;
51943;SDS011;37969;53.132;6.370;2022-12-18T05:07:41;103.53;;;37.83;;
51943;SDS011;37969;53.132;6.370;2022-12-18T05:10:07;102.53;;;38.33;;
51943;SDS011;37969;53.132;6.370;2022-12-18T05:12:34;104.25;;;37.00;;
51943;SDS011;37969;53.132;6.370;2022-12-18T05:15:20;108.30;;;36.78;;
51943;SDS011;37969;53.132;6.370;2022-12-18T05:17:46;103.00;;;37.65;;
51943;SDS011;37969;53.132;6.370;2022-12-18T05:20:12;115.63;;;38.70;;
51943;SDS011;37969;53.132;6.370;2022-12-18T05:22:38;100.72;;;35.35;;
51943;SDS011;37969;53.132;6.370;2022-12-18T05:25:05;99.00;;;35.70;;
51943;SDS011;37969;53.132;6.370;2022-12-18T05:27:31;92.55;;;34.30;;
51943;SDS011;37969;53.132;6.370;2022-12-18T05:29:57;89.28;;;33.50;;
51943;SDS011;37969;53.132;6.370;2022-12-18T05:32:23;98.68;;;35.60;;
51943;SDS011;37969;53.132;6.370;2022-12-18T05:34:49;90.85;;;34.88;;
51943;SDS011;37969;53.132;6.370;2022-12-18T05:37:15;100.57;;;34.17;;
51943;SDS011;37969;53.132;6.370;2022-12-18T05:39:42;92.90;;;33.70;;
51943;SDS011;37969;53.132;6.370;2022-12-18T05:42:08;109.80;;;36.50;;
51943;SDS011;37969;53.132;6.370;2022-12-18T05:44:34;95.35;;;35.97;;
51943;SDS011;37969;53.132;6.370;2022-12-18T05:47:01;95.32;;;35.92;;
51943;SDS011;37969;53.132;6.370;2022-12-18T05:49:27;99.03;;;35.80;;
51943;SDS011;37969;53.132;6.370;2022-12-18T05:51:53;97.53;;;35.08;;
51943;SDS011;37969;53.132;6.370;2022-12-18T05:54:19;97.05;;;34.60;;
51943;SDS011;37969;53.132;6.370;2022-12-18T05:56:45;95.95;;;33.33;;
51943;SDS011;37969;53.132;6.370;2022-12-18T05:59:11;101.53;;;35.42;;
51943;SDS011;37969;53.132;6.370;2022-12-18T06:01:37;96.47;;;35.17;;
51943;SDS011;37969;53.132;6.370;2022-12-18T06:04:03;91.97;;;33.72;;
51943;SDS011;37969;53.132;6.370;2022-12-18T06:06:30;95.13;;;34.75;;
51943;SDS011;37969;53.132;6.370;2022-12-18T06:08:56;90.43;;;34.28;;
51943;SDS011;37969;53.132;6.370;2022-12-18T06:11:24;111.72;;;36.50;;
51943;SDS011;37969;53.132;6.370;2022-12-18T06:13:52;94.47;;;34.25;;
51943;SDS011;37969;53.132;6.370;2022-12-18T06:16:18;95.78;;;34.42;;
51943;SDS011;37969;53.132;6.370;2022-12-18T06:18:44;94.82;;;33.05;;
51943;SDS011;37969;53.132;6.370;2022-12-18T06:21:11;96.18;;;33.83;;
51943;SDS011;37969;53.132;6.370;2022-12-18T06:23:37;98.47;;;33.35;;
51943;SDS011;37969;53.132;6.370;2022-12-18T06:26:04;98.38;;;34.67;;
51943;SDS011;37969;53.132;6.370;2022-12-18T06:28:31;94.38;;;35.45;;
51943;SDS011;37969;53.132;6.370;2022-12-18T06:30:57;97.47;;;33.67;;
51943;SDS011;37969;53.132;6.370;2022-12-18T06:33:25;92.65;;;32.00;;
51943;SDS011;37969;53.132;6.370;2022-12-18T06:35:51;92.38;;;32.45;;
51943;SDS011;37969;53.132;6.370;2022-12-18T06:38:18;93.93;;;32.97;;
51943;SDS011;37969;53.132;6.370;2022-12-18T06:40:44;91.95;;;33.67;;
51943;SDS011;37969;53.132;6.370;2022-12-18T06:43:10;81.25;;;30.23;;
51943;SDS011;37969;53.132;6.370;2022-12-18T06:45:36;91.07;;;32.60;;
51943;SDS011;37969;53.132;6.370;2022-12-18T06:48:02;91.68;;;32.95;;
51943;SDS011;37969;53.132;6.370;2022-12-18T06:50:28;84.53;;;31.33;;
51943;SDS011;37969;53.132;6.370;2022-12-18T06:52:54;85.03;;;31.15;;
51943;SDS011;37969;53.132;6.370;2022-12-18T06:55:21;85.30;;;30.88;;
51943;SDS011;37969;53.132;6.370;2022-12-18T06:57:47;79.25;;;30.88;;
51943;SDS011;37969;53.132;6.370;2022-12-18T07:00:13;72.43;;;28.92;;
51943;SDS011;37969;53.132;6.370;2022-12-18T07:02:39;77.93;;;29.50;;
51943;SDS011;37969;53.132;6.370;2022-12-18T07:05:06;82.57;;;29.27;;
51943;SDS011;37969;53.132;6.370;2022-12-18T07:07:33;80.63;;;29.92;;
51943;SDS011;37969;53.132;6.370;2022-12-18T07:09:59;72.55;;;27.75;;
51943;SDS011;37969;53.132;6.370;2022-12-18T07:12:27;78.32;;;28.13;;
51943;SDS011;37969;53.132;6.370;2022-12-18T07:14:53;78.38;;;29.88;;
51943;SDS011;37969;53.132;6.370;2022-12-18T07:17:19;77.45;;;28.63;;
51943;SDS011;37969;53.132;6.370;2022-12-18T07:19:45;70.38;;;27.25;;
51943;SDS011;37969;53.132;6.370;2022-12-18T07:22:11;72.78;;;28.05;;
51943;SDS011;37969;53.132;6.370;2022-12-18T07:24:37;74.07;;;27.70;;
51943;SDS011;37969;53.132;6.370;2022-12-18T07:27:04;71.22;;;28.20;;
51943;SDS011;37969;53.132;6.370;2022-12-18T07:29:30;66.72;;;28.77;;
51943;SDS011;37969;53.132;6.370;2022-12-18T07:31:56;66.82;;;29.15;;
51943;SDS011;37969;53.132;6.370;2022-12-18T07:34:22;62.95;;;26.10;;
51943;SDS011;37969;53.132;6.370;2022-12-18T07:36:48;63.45;;;27.17;;
51943;SDS011;37969;53.132;6.370;2022-12-18T07:39:14;70.32;;;28.33;;
51943;SDS011;37969;53.132;6.370;2022-12-18T07:41:40;71.75;;;27.65;;
51943;SDS011;37969;53.132;6.370;2022-12-18T07:44:11;64.45;;;27.33;;
51943;SDS011;37969;53.132;6.370;2022-12-18T07:46:38;75.57;;;28.17;;
51943;SDS011;37969;53.132;6.370;2022-12-18T07:49:04;60.67;;;26.25;;
51943;SDS011;37969;53.132;6.370;2022-12-18T07:51:30;66.43;;;27.17;;
51943;SDS011;37969;53.132;6.370;2022-12-18T07:53:56;65.13;;;27.42;;
51943;SDS011;37969;53.132;6.370;2022-12-18T07:56:22;65.65;;;26.80;;
51943;SDS011;37969;53.132;6.370;2022-12-18T07:58:48;66.68;;;28.50;;
51943;SDS011;37969;53.132;6.370;2022-12-18T08:01:15;67.60;;;28.42;;
51943;SDS011;37969;53.132;6.370;2022-12-18T08:03:41;77.15;;;29.83;;
51943;SDS011;37969;53.132;6.370;2022-12-18T08:06:08;78.10;;;30.23;;
51943;SDS011;37969;53.132;6.370;2022-12-18T08:08:35;71.43;;;30.70;;
51943;SDS011;37969;53.132;6.370;2022-12-18T08:11:01;68.90;;;30.58;;
51943;SDS011;37969;53.132;6.370;2022-12-18T08:13:27;57.53;;;28.00;;
51943;SDS011;37969;53.132;6.370;2022-12-18T08:15:58;61.40;;;26.85;;
51943;SDS011;37969;53.132;6.370;2022-12-18T08:18:25;56.55;;;26.13;;
51943;SDS011;37969;53.132;6.370;2022-12-18T08:20:51;49.97;;;25.65;;
51943;SDS011;37969;53.132;6.370;2022-12-18T08:23:17;50.95;;;25.55;;
51943;SDS011;37969;53.132;6.370;2022-12-18T08:25:43;56.15;;;24.63;;
51943;SDS011;37969;53.132;6.370;2022-12-18T08:28:09;56.72;;;24.35;;
51943;SDS011;37969;53.132;6.370;2022-12-18T08:30:36;51.47;;;24.88;;
51943;SDS011;37969;53.132;6.370;2022-12-18T08:33:02;51.38;;;24.98;;
51943;SDS011;37969;53.132;6.370;2022-12-18T08:35:28;51.28;;;24.20;;
51943;SDS011;37969;53.132;6.370;2022-12-18T08:37:54;49.08;;;23.80;;
51943;SDS011;37969;53.132;6.370;2022-12-18T08:40:20;45.78;;;22.90;;
51943;SDS011;37969;53.132;6.370;2022-12-18T08:42:47;53.00;;;24.35;;
51943;SDS011;37969;53.132;6.370;2022-12-18T08:45:33;50.78;;;22.35;;
51943;SDS011;37969;53.132;6.370;2022-12-18T08:47:59;46.10;;;22.90;;
51943;SDS011;37969;53.132;6.370;2022-12-18T08:50:25;53.05;;;24.20;;
51943;SDS011;37969;53.132;6.370;2022-12-18T08:52:51;44.97;;;22.20;;
51943;SDS011;37969;53.132;6.370;2022-12-18T08:55:18;48.97;;;22.77;;
51943;SDS011;37969;53.132;6.370;2022-12-18T08:57:47;45.83;;;22.85;;
51943;SDS011;37969;53.132;6.370;2022-12-18T09:00:14;42.00;;;21.98;;
51943;SDS011;37969;53.132;6.370;2022-12-18T09:02:40;43.83;;;22.05;;
51943;SDS011;37969;53.132;6.370;2022-12-18T09:05:06;46.50;;;22.17;;
51943;SDS011;37969;53.132;6.370;2022-12-18T09:07:32;45.15;;;21.98;;
51943;SDS011;37969;53.132;6.370;2022-12-18T09:09:59;42.92;;;21.67;;
51943;SDS011;37969;53.132;6.370;2022-12-18T09:12:25;43.65;;;21.60;;
51943;SDS011;37969;53.132;6.370;2022-12-18T09:14:51;44.00;;;21.75;;
51943;SDS011;37969;53.132;6.370;2022-12-18T09:17:17;39.85;;;21.45;;
51943;SDS011;37969;53.132;6.370;2022-12-18T09:19:43;46.00;;;21.40;;
51943;SDS011;37969;53.132;6.370;2022-12-18T09:22:09;43.65;;;20.85;;
51943;SDS011;37969;53.132;6.370;2022-12-18T09:24:36;40.00;;;20.83;;
51943;SDS011;37969;53.132;6.370;2022-12-18T09:27:02;43.22;;;22.35;;
51943;SDS011;37969;53.132;6.370;2022-12-18T09:29:28;43.00;;;20.88;;
51943;SDS011;37969;53.132;6.370;2022-12-18T09:31:54;37.42;;;20.00;;
51943;SDS011;37969;53.132;6.370;2022-12-18T09:34:21;40.15;;;20.90;;
51943;SDS011;37969;53.132;6.370;2022-12-18T09:36:47;37.67;;;20.45;;
51943;SDS011;37969;53.132;6.370;2022-12-18T09:39:14;36.85;;;18.95;;
51943;SDS011;37969;53.132;6.370;2022-12-18T09:41:50;34.83;;;20.38;;
51943;SDS011;37969;53.132;6.370;2022-12-18T09:46:50;34.00;;;18.63;;
51943;SDS011;37969;53.132;6.370;2022-12-18T09:51:45;32.45;;;18.17;;
51943;SDS011;37969;53.132;6.370;2022-12-18T09:54:15;33.63;;;17.92;;
51943;SDS011;37969;53.132;6.370;2022-12-18T09:56:42;37.53;;;19.23;;
51943;SDS011;37969;53.132;6.370;2022-12-18T09:59:18;36.50;;;18.65;;
51943;SDS011;37969;53.132;6.370;2022-12-18T10:01:45;35.00;;;17.63;;
51943;SDS011;37969;53.132;6.370;2022-12-18T10:04:11;32.25;;;17.85;;
51943;SDS011;37969;53.132;6.370;2022-12-18T10:06:43;34.08;;;17.70;;
51943;SDS011;37969;53.132;6.370;2022-12-18T10:09:21;28.10;;;16.33;;
51943;SDS011;37969;53.132;6.370;2022-12-18T10:11:53;30.38;;;16.65;;
51943;SDS011;37969;53.132;6.370;2022-12-18T10:14:30;29.63;;;15.75;;
51943;SDS011;37969;53.132;6.370;2022-12-18T10:17:04;31.45;;;17.35;;
51943;SDS011;37969;53.132;6.370;2022-12-18T10:19:36;30.60;;;17.05;;
51943;SDS011;37969;53.132;6.370;2022-12-18T10:24:38;32.38;;;17.77;;
51943;SDS011;37969;53.132;6.370;2022-12-18T10:27:15;33.30;;;18.27;;
51943;SDS011;37969;53.132;6.370;2022-12-18T10:29:42;36.20;;;19.33;;
51943;SDS011;37969;53.132;6.370;2022-12-18T10:32:13;32.75;;;16.85;;
51943;SDS011;37969;53.132;6.370;2022-12-18T10:34:40;30.63;;;17.92;;
51943;SDS011;37969;53.132;6.370;2022-12-18T10:37:06;31.52;;;17.67;;
51943;SDS011;37969;53.132;6.370;2022-12-18T10:39:38;28.55;;;16.48;;
51943;SDS011;37969;53.132;6.370;2022-12-18T10:42:09;32.42;;;17.95;;
51943;SDS011;37969;53.132;6.370;2022-12-18T10:44:37;29.40;;;16.55;;
51943;SDS011;37969;53.132;6.370;2022-12-18T10:47:04;28.15;;;16.85;;
51943;SDS011;37969;53.132;6.370;2022-12-18T10:49:32;26.42;;;16.38;;
51943;SDS011;37969;53.132;6.370;2022-12-18T10:54:31;26.27;;;14.48;;
51943;SDS011;37969;53.132;6.370;2022-12-18T10:57:16;29.90;;;15.40;;
51943;SDS011;37969;53.132;6.370;2022-12-18T10:59:51;26.80;;;14.93;;
51943;SDS011;37969;53.132;6.370;2022-12-18T11:02:25;24.25;;;14.10;;
51943;SDS011;37969;53.132;6.370;2022-12-18T11:04:52;23.80;;;14.30;;
51943;SDS011;37969;53.132;6.370;2022-12-18T11:07:18;26.35;;;13.80;;
51943;SDS011;37969;53.132;6.370;2022-12-18T11:09:45;24.60;;;14.32;;
51943;SDS011;37969;53.132;6.370;2022-12-18T11:12:24;23.33;;;13.00;;
51943;SDS011;37969;53.132;6.370;2022-12-18T11:14:54;24.80;;;12.57;;
51943;SDS011;37969;53.132;6.370;2022-12-18T11:17:21;19.60;;;12.45;;
51943;SDS011;37969;53.132;6.370;2022-12-18T11:19:52;21.52;;;13.02;;
51943;SDS011;37969;53.132;6.370;2022-12-18T11:22:26;23.73;;;12.98;;
51943;SDS011;37969;53.132;6.370;2022-12-18T11:24:54;17.95;;;12.00;;
51943;SDS011;37969;53.132;6.370;2022-12-18T11:27:21;19.50;;;11.75;;
51943;SDS011;37969;53.132;6.370;2022-12-18T11:29:47;20.90;;;12.40;;
51943;SDS011;37969;53.132;6.370;2022-12-18T11:34:42;20.92;;;12.00;;
51943;SDS011;37969;53.132;6.370;2022-12-18T11:37:11;17.50;;;10.43;;
51943;SDS011;37969;53.132;6.370;2022-12-18T11:39:40;17.48;;;11.35;;
51943;SDS011;37969;53.132;6.370;2022-12-18T11:49:50;18.13;;;9.88;;
51943;SDS011;37969;53.132;6.370;2022-12-18T11:52:23;14.98;;;8.50;;
51943;SDS011;37969;53.132;6.370;2022-12-18T11:54:51;12.80;;;8.43;;
51943;SDS011;37969;53.132;6.370;2022-12-18T11:57:24;13.95;;;9.52;;
51943;SDS011;37969;53.132;6.370;2022-12-18T11:59:56;16.15;;;9.80;;
51943;SDS011;37969;53.132;6.370;2022-12-18T12:02:33;16.27;;;9.57;;
51943;SDS011;37969;53.132;6.370;2022-12-18T12:07:32;17.33;;;11.10;;
51943;SDS011;37969;53.132;6.370;2022-12-18T12:10:05;16.98;;;11.18;;
51943;SDS011;37969;53.132;6.370;2022-12-18T12:12:39;16.83;;;11.20;;
51943;SDS011;37969;53.132;6.370;2022-12-18T12:15:13;17.52;;;11.50;;
51943;SDS011;37969;53.132;6.370;2022-12-18T12:20:14;18.23;;;10.63;;
51943;SDS011;37969;53.132;6.370;2022-12-18T12:25:13;17.08;;;10.15;;
51943;SDS011;37969;53.132;6.370;2022-12-18T12:27:49;16.23;;;10.05;;
51943;SDS011;37969;53.132;6.370;2022-12-18T12:30:21;20.02;;;10.55;;
51943;SDS011;37969;53.132;6.370;2022-12-18T12:32:54;15.80;;;10.07;;
51943;SDS011;37969;53.132;6.370;2022-12-18T12:35:29;15.50;;;9.80;;
51943;SDS011;37969;53.132;6.370;2022-12-18T12:40:34;18.63;;;9.98;;
51943;SDS011;37969;53.132;6.370;2022-12-18T12:43:10;15.43;;;9.20;;
51943;SDS011;37969;53.132;6.370;2022-12-18T12:45:48;13.85;;;9.57;;
51943;SDS011;37969;53.132;6.370;2022-12-18T12:48:27;14.45;;;9.50;;
51943;SDS011;37969;53.132;6.370;2022-12-18T12:50:58;13.68;;;8.65;;
51943;SDS011;37969;53.132;6.370;2022-12-18T12:53:26;13.63;;;8.18;;
51943;SDS011;37969;53.132;6.370;2022-12-18T12:55:55;15.00;;;9.10;;
51943;SDS011;37969;53.132;6.370;2022-12-18T12:58:30;12.85;;;8.30;;
51943;SDS011;37969;53.132;6.370;2022-12-18T13:03:37;17.33;;;9.45;;
51943;SDS011;37969;53.132;6.370;2022-12-18T13:06:10;14.55;;;8.85;;
51943;SDS011;37969;53.132;6.370;2022-12-18T13:08:53;14.23;;;8.95;;
51943;SDS011;37969;53.132;6.370;2022-12-18T13:11:28;15.95;;;9.48;;
51943;SDS011;37969;53.132;6.370;2022-12-18T13:14:43;13.88;;;8.57;;
51943;SDS011;37969;53.132;6.370;2022-12-18T13:17:21;13.70;;;8.98;;
51943;SDS011;37969;53.132;6.370;2022-12-18T13:20:02;14.70;;;9.05;;
51943;SDS011;37969;53.132;6.370;2022-12-18T13:22:33;14.27;;;8.18;;
51943;SDS011;37969;53.132;6.370;2022-12-18T13:25:00;13.38;;;9.07;;
51943;SDS011;37969;53.132;6.370;2022-12-18T13:28:00;14.63;;;8.95;;
51943;SDS011;37969;53.132;6.370;2022-12-18T13:30:40;14.15;;;8.13;;
51943;SDS011;37969;53.132;6.370;2022-12-18T13:40:57;12.98;;;8.05;;
51943;SDS011;37969;53.132;6.370;2022-12-18T13:43:28;12.13;;;8.82;;
51943;SDS011;37969;53.132;6.370;2022-12-18T13:48:28;11.23;;;7.30;;
51943;SDS011;37969;53.132;6.370;2022-12-18T13:50:56;13.55;;;7.25;;
51943;SDS011;37969;53.132;6.370;2022-12-18T13:53:26;13.20;;;7.73;;
51943;SDS011;37969;53.132;6.370;2022-12-18T13:55:53;46.40;;;23.52;;
51943;SDS011;37969;53.132;6.370;2022-12-18T13:58:20;15.40;;;9.68;;
51943;SDS011;37969;53.132;6.370;2022-12-18T14:00:46;39.65;;;25.90;;
51943;SDS011;37969;53.132;6.370;2022-12-18T14:03:20;11.63;;;8.20;;
51943;SDS011;37969;53.132;6.370;2022-12-18T14:05:51;13.32;;;7.70;;
51943;SDS011;37969;53.132;6.370;2022-12-18T14:08:18;12.10;;;7.20;;
51943;SDS011;37969;53.132;6.370;2022-12-18T14:10:45;13.05;;;7.28;;
51943;SDS011;37969;53.132;6.370;2022-12-18T14:13:16;15.13;;;7.78;;
51943;SDS011;37969;53.132;6.370;2022-12-18T14:15:45;11.57;;;7.65;;
51943;SDS011;37969;53.132;6.370;2022-12-18T14:18:17;11.75;;;7.00;;
51943;SDS011;37969;53.132;6.370;2022-12-18T14:20:45;11.95;;;7.38;;
51943;SDS011;37969;53.132;6.370;2022-12-18T14:23:25;11.82;;;7.28;;
51943;SDS011;37969;53.132;6.370;2022-12-18T14:25:52;10.65;;;6.78;;
51943;SDS011;37969;53.132;6.370;2022-12-18T14:28:18;11.93;;;7.35;;
51943;SDS011;37969;53.132;6.370;2022-12-18T14:30:46;11.98;;;7.82;;
51943;SDS011;37969;53.132;6.370;2022-12-18T14:33:17;10.93;;;6.95;;
51943;SDS011;37969;53.132;6.370;2022-12-18T14:35:54;13.73;;;7.47;;
51943;SDS011;37969;53.132;6.370;2022-12-18T14:40:53;11.23;;;7.72;;
51943;SDS011;37969;53.132;6.370;2022-12-18T14:43:20;12.43;;;7.90;;
51943;SDS011;37969;53.132;6.370;2022-12-18T14:45:47;11.93;;;7.13;;
51943;SDS011;37969;53.132;6.370;2022-12-18T14:48:17;11.98;;;7.72;;
51943;SDS011;37969;53.132;6.370;2022-12-18T14:50:43;12.37;;;7.27;;
51943;SDS011;37969;53.132;6.370;2022-12-18T14:53:20;11.13;;;7.22;;
51943;SDS011;37969;53.132;6.370;2022-12-18T14:55:48;12.23;;;7.78;;
51943;SDS011;37969;53.132;6.370;2022-12-18T14:58:15;14.38;;;7.13;;
51943;SDS011;37969;53.132;6.370;2022-12-18T15:00:43;10.48;;;7.10;;
51943;SDS011;37969;53.132;6.370;2022-12-18T15:03:09;11.35;;;6.85;;
51943;SDS011;37969;53.132;6.370;2022-12-18T15:05:36;10.90;;;6.68;;
51943;SDS011;37969;53.132;6.370;2022-12-18T15:08:02;11.63;;;7.57;;
51943;SDS011;37969;53.132;6.370;2022-12-18T15:10:29;10.25;;;7.15;;
51943;SDS011;37969;53.132;6.370;2022-12-18T15:18:02;11.55;;;7.78;;
51943;SDS011;37969;53.132;6.370;2022-12-18T15:20:30;10.80;;;7.40;;
51943;SDS011;37969;53.132;6.370;2022-12-18T15:22:57;12.63;;;7.38;;
51943;SDS011;37969;53.132;6.370;2022-12-18T15:25:31;11.98;;;8.23;;
51943;SDS011;37969;53.132;6.370;2022-12-18T15:27:57;13.13;;;7.47;;
51943;SDS011;37969;53.132;6.370;2022-12-18T15:30:24;12.98;;;8.18;;
51943;SDS011;37969;53.132;6.370;2022-12-18T15:32:51;12.43;;;7.38;;